Terminal Aerodrome Forecast
Issued by NWS

Home | Current Version | Previous Version | Graphics & Text | Print | Product List | Glossary On
Versions: 1 2 3 4 5 6 7 8 9 10 11 12 13 14 15 16 17 18 19 20 21 22 23 24 25 26 27 28
000
FTUS43 KGRB 282340
TAFATW
TAF
KATW 282340Z 2900/2924 21006KT 6SM -RA BR SCT040 OVC080
      TEMPO 2900/2902 4SM -RA BR SCT020 OVC040
     FM290200 18005KT 5SM -RA BR BKN020 OVC040
     FM290700 VRB03KT 3SM -RA BR BKN009 OVC018
     FM291500 12005KT 5SM BR SCT009 OVC020 PROB30 2915/2918 2SM
      -SHRA BR BKN009
     FM292100 15005KT P6SM FEW025 BKN050=

USA.gov is the U.S. government's official web portal to all federal, state and local government web resources and services.